sensor_id;sensor_type;location;lat;lon;timestamp;P1;durP1;ratioP1;P2;durP2;ratioP2
16665;SDS011;8446;50.998;6.250;2023-07-28T00:01:29;8.60;;;1.90;;
16665;SDS011;8446;50.998;6.250;2023-07-28T00:03:56;3.30;;;1.97;;
16665;SDS011;8446;50.998;6.250;2023-07-28T00:06:23;2.80;;;2.07;;
16665;SDS011;8446;50.998;6.250;2023-07-28T00:08:50;3.43;;;1.77;;
16665;SDS011;8446;50.998;6.250;2023-07-28T00:11:16;3.80;;;2.20;;
16665;SDS011;8446;50.998;6.250;2023-07-28T00:13:44;4.10;;;2.43;;
16665;SDS011;8446;50.998;6.250;2023-07-28T00:16:11;2.27;;;2.00;;
16665;SDS011;8446;50.998;6.250;2023-07-28T00:18:39;14.13;;;2.27;;
16665;SDS011;8446;50.998;6.250;2023-07-28T00:21:06;2.43;;;2.23;;
16665;SDS011;8446;50.998;6.250;2023-07-28T00:23:32;2.70;;;1.90;;
16665;SDS011;8446;50.998;6.250;2023-07-28T00:25:59;2.50;;;2.30;;
16665;SDS011;8446;50.998;6.250;2023-07-28T00:28:26;2.33;;;2.10;;
16665;SDS011;8446;50.998;6.250;2023-07-28T00:30:54;3.00;;;2.23;;
16665;SDS011;8446;50.998;6.250;2023-07-28T00:33:21;3.10;;;2.10;;
16665;SDS011;8446;50.998;6.250;2023-07-28T00:35:48;5.63;;;2.23;;
16665;SDS011;8446;50.998;6.250;2023-07-28T00:38:15;4.60;;;2.07;;
16665;SDS011;8446;50.998;6.250;2023-07-28T00:40:42;5.07;;;2.17;;
16665;SDS011;8446;50.998;6.250;2023-07-28T00:43:09;2.57;;;2.37;;
16665;SDS011;8446;50.998;6.250;2023-07-28T00:45:35;2.83;;;2.60;;
16665;SDS011;8446;50.998;6.250;2023-07-28T00:48:04;3.20;;;2.33;;
16665;SDS011;8446;50.998;6.250;2023-07-28T00:50:36;5.63;;;2.10;;
16665;SDS011;8446;50.998;6.250;2023-07-28T00:53:03;4.13;;;2.37;;
16665;SDS011;8446;50.998;6.250;2023-07-28T00:55:30;8.10;;;3.00;;
16665;SDS011;8446;50.998;6.250;2023-07-28T00:57:57;2.60;;;2.00;;
16665;SDS011;8446;50.998;6.250;2023-07-28T01:00:24;5.13;;;2.60;;
16665;SDS011;8446;50.998;6.250;2023-07-28T01:02:51;3.10;;;2.53;;
16665;SDS011;8446;50.998;6.250;2023-07-28T01:05:19;2.63;;;2.37;;
16665;SDS011;8446;50.998;6.250;2023-07-28T01:07:51;4.43;;;2.83;;
16665;SDS011;8446;50.998;6.250;2023-07-28T01:10:24;2.67;;;2.40;;
16665;SDS011;8446;50.998;6.250;2023-07-28T01:12:56;5.60;;;2.90;;
16665;SDS011;8446;50.998;6.250;2023-07-28T01:15:23;3.50;;;2.83;;
16665;SDS011;8446;50.998;6.250;2023-07-28T01:17:50;6.57;;;2.67;;
16665;SDS011;8446;50.998;6.250;2023-07-28T01:20:17;8.10;;;2.57;;
16665;SDS011;8446;50.998;6.250;2023-07-28T01:22:51;4.53;;;3.50;;
16665;SDS011;8446;50.998;6.250;2023-07-28T01:25:32;4.03;;;3.67;;
16665;SDS011;8446;50.998;6.250;2023-07-28T01:28:11;4.33;;;3.60;;
16665;SDS011;8446;50.998;6.250;2023-07-28T01:30:38;3.80;;;3.37;;
16665;SDS011;8446;50.998;6.250;2023-07-28T01:33:06;4.03;;;3.13;;
16665;SDS011;8446;50.998;6.250;2023-07-28T01:35:33;4.40;;;4.00;;
16665;SDS011;8446;50.998;6.250;2023-07-28T01:38:01;5.63;;;4.10;;
16665;SDS011;8446;50.998;6.250;2023-07-28T01:40:28;4.10;;;3.50;;
16665;SDS011;8446;50.998;6.250;2023-07-28T01:42:55;6.73;;;3.30;;
16665;SDS011;8446;50.998;6.250;2023-07-28T01:45:23;4.40;;;3.13;;
16665;SDS011;8446;50.998;6.250;2023-07-28T01:47:50;4.30;;;3.40;;
16665;SDS011;8446;50.998;6.250;2023-07-28T01:50:17;7.67;;;4.00;;
16665;SDS011;8446;50.998;6.250;2023-07-28T01:52:43;4.53;;;3.67;;
16665;SDS011;8446;50.998;6.250;2023-07-28T01:55:10;4.20;;;3.80;;
16665;SDS011;8446;50.998;6.250;2023-07-28T01:57:38;9.50;;;3.80;;
16665;SDS011;8446;50.998;6.250;2023-07-28T02:00:06;12.03;;;3.50;;
16665;SDS011;8446;50.998;6.250;2023-07-28T02:02:35;4.03;;;3.23;;
16665;SDS011;8446;50.998;6.250;2023-07-28T02:05:01;7.73;;;3.90;;
16665;SDS011;8446;50.998;6.250;2023-07-28T02:07:28;6.20;;;3.50;;
16665;SDS011;8446;50.998;6.250;2023-07-28T02:09:55;4.67;;;3.73;;
16665;SDS011;8446;50.998;6.250;2023-07-28T02:12:22;7.60;;;3.70;;
16665;SDS011;8446;50.998;6.250;2023-07-28T02:14:50;4.37;;;3.67;;
16665;SDS011;8446;50.998;6.250;2023-07-28T02:17:17;4.43;;;2.97;;
16665;SDS011;8446;50.998;6.250;2023-07-28T02:19:45;5.00;;;3.23;;
16665;SDS011;8446;50.998;6.250;2023-07-28T02:22:12;6.90;;;3.53;;
16665;SDS011;8446;50.998;6.250;2023-07-28T02:24:39;5.57;;;3.70;;
16665;SDS011;8446;50.998;6.250;2023-07-28T02:27:05;3.63;;;3.20;;
16665;SDS011;8446;50.998;6.250;2023-07-28T02:29:32;3.40;;;3.10;;
16665;SDS011;8446;50.998;6.250;2023-07-28T02:31:59;5.60;;;2.93;;
16665;SDS011;8446;50.998;6.250;2023-07-28T02:34:25;4.97;;;3.00;;
16665;SDS011;8446;50.998;6.250;2023-07-28T02:36:54;3.07;;;2.80;;
16665;SDS011;8446;50.998;6.250;2023-07-28T02:39:20;5.53;;;3.70;;
16665;SDS011;8446;50.998;6.250;2023-07-28T02:41:47;4.00;;;3.10;;
16665;SDS011;8446;50.998;6.250;2023-07-28T02:44:14;3.27;;;2.97;;
16665;SDS011;8446;50.998;6.250;2023-07-28T02:46:41;3.40;;;3.10;;
16665;SDS011;8446;50.998;6.250;2023-07-28T02:49:07;8.80;;;3.90;;
16665;SDS011;8446;50.998;6.250;2023-07-28T02:51:34;6.73;;;3.03;;
16665;SDS011;8446;50.998;6.250;2023-07-28T02:54:02;4.97;;;2.63;;
16665;SDS011;8446;50.998;6.250;2023-07-28T02:56:29;3.30;;;2.80;;
16665;SDS011;8446;50.998;6.250;2023-07-28T02:58:59;3.90;;;2.70;;
16665;SDS011;8446;50.998;6.250;2023-07-28T03:01:26;5.43;;;2.60;;
16665;SDS011;8446;50.998;6.250;2023-07-28T03:03:55;3.07;;;2.70;;
16665;SDS011;8446;50.998;6.250;2023-07-28T03:06:21;2.83;;;2.57;;
16665;SDS011;8446;50.998;6.250;2023-07-28T03:08:48;2.97;;;2.67;;
16665;SDS011;8446;50.998;6.250;2023-07-28T03:11:16;4.07;;;3.00;;
16665;SDS011;8446;50.998;6.250;2023-07-28T03:13:43;5.00;;;2.73;;
16665;SDS011;8446;50.998;6.250;2023-07-28T03:16:09;4.70;;;2.97;;
16665;SDS011;8446;50.998;6.250;2023-07-28T03:18:36;4.30;;;2.47;;
16665;SDS011;8446;50.998;6.250;2023-07-28T03:21:03;2.70;;;2.40;;
16665;SDS011;8446;50.998;6.250;2023-07-28T03:23:30;3.70;;;2.70;;
16665;SDS011;8446;50.998;6.250;2023-07-28T03:25:57;3.00;;;2.23;;
16665;SDS011;8446;50.998;6.250;2023-07-28T03:28:25;2.43;;;2.23;;
16665;SDS011;8446;50.998;6.250;2023-07-28T03:30:51;9.43;;;3.20;;
16665;SDS011;8446;50.998;6.250;2023-07-28T03:33:18;3.03;;;2.20;;
16665;SDS011;8446;50.998;6.250;2023-07-28T03:35:45;4.53;;;3.27;;
16665;SDS011;8446;50.998;6.250;2023-07-28T03:38:12;5.03;;;3.70;;
16665;SDS011;8446;50.998;6.250;2023-07-28T03:40:38;5.37;;;2.60;;
16665;SDS011;8446;50.998;6.250;2023-07-28T03:43:05;4.90;;;2.47;;
16665;SDS011;8446;50.998;6.250;2023-07-28T03:45:33;2.57;;;2.20;;
16665;SDS011;8446;50.998;6.250;2023-07-28T03:48:00;2.93;;;2.23;;
16665;SDS011;8446;50.998;6.250;2023-07-28T03:50:27;3.33;;;2.60;;
16665;SDS011;8446;50.998;6.250;2023-07-28T03:52:53;3.13;;;2.70;;
16665;SDS011;8446;50.998;6.250;2023-07-28T03:55:20;3.83;;;2.70;;
16665;SDS011;8446;50.998;6.250;2023-07-28T03:57:47;3.10;;;2.40;;
16665;SDS011;8446;50.998;6.250;2023-07-28T04:00:14;3.00;;;2.33;;
16665;SDS011;8446;50.998;6.250;2023-07-28T04:02:42;3.60;;;2.43;;
16665;SDS011;8446;50.998;6.250;2023-07-28T04:05:09;3.13;;;2.50;;
16665;SDS011;8446;50.998;6.250;2023-07-28T04:07:35;9.10;;;3.10;;
16665;SDS011;8446;50.998;6.250;2023-07-28T04:10:02;2.60;;;2.40;;
16665;SDS011;8446;50.998;6.250;2023-07-28T04:12:30;3.37;;;2.30;;
16665;SDS011;8446;50.998;6.250;2023-07-28T04:14:57;3.80;;;2.90;;
16665;SDS011;8446;50.998;6.250;2023-07-28T04:17:23;6.03;;;2.93;;
16665;SDS011;8446;50.998;6.250;2023-07-28T04:19:52;4.77;;;3.13;;
16665;SDS011;8446;50.998;6.250;2023-07-28T04:22:19;2.93;;;2.20;;
16665;SDS011;8446;50.998;6.250;2023-07-28T04:24:46;2.20;;;2.00;;
16665;SDS011;8446;50.998;6.250;2023-07-28T04:27:13;4.00;;;2.33;;
16665;SDS011;8446;50.998;6.250;2023-07-28T04:29:40;4.47;;;2.57;;
16665;SDS011;8446;50.998;6.250;2023-07-28T04:32:07;3.67;;;2.47;;
16665;SDS011;8446;50.998;6.250;2023-07-28T04:34:34;2.43;;;2.07;;
16665;SDS011;8446;50.998;6.250;2023-07-28T04:37:03;3.20;;;2.07;;
16665;SDS011;8446;50.998;6.250;2023-07-28T04:39:30;2.43;;;2.23;;
16665;SDS011;8446;50.998;6.250;2023-07-28T04:41:57;3.67;;;1.90;;
16665;SDS011;8446;50.998;6.250;2023-07-28T04:44:23;2.10;;;1.97;;
16665;SDS011;8446;50.998;6.250;2023-07-28T04:46:50;2.73;;;2.13;;
16665;SDS011;8446;50.998;6.250;2023-07-28T04:49:17;5.43;;;2.50;;
16665;SDS011;8446;50.998;6.250;2023-07-28T04:51:45;6.10;;;2.10;;
16665;SDS011;8446;50.998;6.250;2023-07-28T04:54:13;2.13;;;1.93;;
16665;SDS011;8446;50.998;6.250;2023-07-28T04:56:40;4.90;;;3.03;;
16665;SDS011;8446;50.998;6.250;2023-07-28T04:59:07;3.67;;;2.43;;
16665;SDS011;8446;50.998;6.250;2023-07-28T05:01:34;5.50;;;2.70;;
16665;SDS011;8446;50.998;6.250;2023-07-28T05:04:00;7.27;;;2.70;;
16665;SDS011;8446;50.998;6.250;2023-07-28T05:06:27;3.90;;;3.37;;
16665;SDS011;8446;50.998;6.250;2023-07-28T05:08:54;4.10;;;3.07;;
16665;SDS011;8446;50.998;6.250;2023-07-28T05:11:22;3.77;;;3.10;;
16665;SDS011;8446;50.998;6.250;2023-07-28T05:13:49;5.80;;;4.10;;
16665;SDS011;8446;50.998;6.250;2023-07-28T05:16:15;10.87;;;3.70;;
16665;SDS011;8446;50.998;6.250;2023-07-28T05:18:42;6.70;;;3.60;;
16665;SDS011;8446;50.998;6.250;2023-07-28T05:21:09;5.57;;;3.60;;
16665;SDS011;8446;50.998;6.250;2023-07-28T05:23:36;7.00;;;3.80;;
16665;SDS011;8446;50.998;6.250;2023-07-28T05:26:02;3.87;;;3.37;;
16665;SDS011;8446;50.998;6.250;2023-07-28T05:28:33;11.43;;;4.60;;
16665;SDS011;8446;50.998;6.250;2023-07-28T05:31:03;10.10;;;4.70;;
16665;SDS011;8446;50.998;6.250;2023-07-28T05:33:30;8.33;;;4.80;;
16665;SDS011;8446;50.998;6.250;2023-07-28T05:36:00;19.03;;;4.47;;
16665;SDS011;8446;50.998;6.250;2023-07-28T05:38:27;9.33;;;4.30;;
16665;SDS011;8446;50.998;6.250;2023-07-28T05:40:57;5.60;;;4.07;;
16665;SDS011;8446;50.998;6.250;2023-07-28T05:43:26;11.07;;;4.20;;
16665;SDS011;8446;50.998;6.250;2023-07-28T05:45:54;5.70;;;4.07;;
16665;SDS011;8446;50.998;6.250;2023-07-28T05:48:21;8.37;;;4.30;;
16665;SDS011;8446;50.998;6.250;2023-07-28T05:50:47;5.03;;;4.03;;
16665;SDS011;8446;50.998;6.250;2023-07-28T05:53:16;9.93;;;4.30;;
16665;SDS011;8446;50.998;6.250;2023-07-28T05:55:43;8.87;;;3.70;;
16665;SDS011;8446;50.998;6.250;2023-07-28T05:58:10;6.93;;;3.77;;
16665;SDS011;8446;50.998;6.250;2023-07-28T06:00:38;7.03;;;4.20;;
16665;SDS011;8446;50.998;6.250;2023-07-28T06:03:06;6.17;;;4.00;;
16665;SDS011;8446;50.998;6.250;2023-07-28T06:05:33;9.10;;;4.80;;
16665;SDS011;8446;50.998;6.250;2023-07-28T06:08:00;10.60;;;4.53;;
16665;SDS011;8446;50.998;6.250;2023-07-28T06:10:27;7.43;;;4.43;;
16665;SDS011;8446;50.998;6.250;2023-07-28T06:12:54;8.27;;;5.13;;
16665;SDS011;8446;50.998;6.250;2023-07-28T06:15:20;7.83;;;3.90;;
16665;SDS011;8446;50.998;6.250;2023-07-28T06:17:47;8.47;;;5.07;;
16665;SDS011;8446;50.998;6.250;2023-07-28T06:20:16;8.90;;;4.27;;
16665;SDS011;8446;50.998;6.250;2023-07-28T06:22:42;6.30;;;4.20;;
16665;SDS011;8446;50.998;6.250;2023-07-28T06:25:09;6.87;;;4.80;;
16665;SDS011;8446;50.998;6.250;2023-07-28T06:27:36;7.37;;;4.50;;
16665;SDS011;8446;50.998;6.250;2023-07-28T06:30:03;7.33;;;4.00;;
16665;SDS011;8446;50.998;6.250;2023-07-28T06:32:31;6.80;;;3.53;;
16665;SDS011;8446;50.998;6.250;2023-07-28T06:34:58;5.93;;;3.43;;
16665;SDS011;8446;50.998;6.250;2023-07-28T06:37:26;8.10;;;3.93;;
16665;SDS011;8446;50.998;6.250;2023-07-28T06:39:53;7.30;;;4.30;;
16665;SDS011;8446;50.998;6.250;2023-07-28T06:42:20;5.30;;;3.90;;
16665;SDS011;8446;50.998;6.250;2023-07-28T06:44:49;6.73;;;4.53;;
16665;SDS011;8446;50.998;6.250;2023-07-28T06:47:16;7.67;;;3.30;;
16665;SDS011;8446;50.998;6.250;2023-07-28T06:49:43;6.30;;;3.63;;
16665;SDS011;8446;50.998;6.250;2023-07-28T06:52:10;4.77;;;3.73;;
16665;SDS011;8446;50.998;6.250;2023-07-28T06:54:38;8.13;;;3.83;;
16665;SDS011;8446;50.998;6.250;2023-07-28T06:57:05;4.40;;;3.53;;
16665;SDS011;8446;50.998;6.250;2023-07-28T06:59:32;4.40;;;3.90;;
16665;SDS011;8446;50.998;6.250;2023-07-28T07:01:59;4.23;;;3.73;;
16665;SDS011;8446;50.998;6.250;2023-07-28T07:04:26;7.97;;;3.70;;
16665;SDS011;8446;50.998;6.250;2023-07-28T07:06:53;15.50;;;3.13;;
16665;SDS011;8446;50.998;6.250;2023-07-28T07:09:19;8.67;;;3.90;;
16665;SDS011;8446;50.998;6.250;2023-07-28T07:11:47;4.57;;;3.50;;
16665;SDS011;8446;50.998;6.250;2023-07-28T07:14:14;4.97;;;3.67;;
16665;SDS011;8446;50.998;6.250;2023-07-28T07:16:41;3.83;;;3.47;;
16665;SDS011;8446;50.998;6.250;2023-07-28T07:19:08;4.77;;;3.00;;
16665;SDS011;8446;50.998;6.250;2023-07-28T07:21:35;4.70;;;3.73;;
16665;SDS011;8446;50.998;6.250;2023-07-28T07:24:02;6.20;;;2.90;;
16665;SDS011;8446;50.998;6.250;2023-07-28T07:26:29;4.93;;;3.00;;
16665;SDS011;8446;50.998;6.250;2023-07-28T07:28:58;5.30;;;3.10;;
16665;SDS011;8446;50.998;6.250;2023-07-28T07:31:25;7.13;;;3.73;;
16665;SDS011;8446;50.998;6.250;2023-07-28T07:33:52;5.63;;;3.10;;
16665;SDS011;8446;50.998;6.250;2023-07-28T07:36:19;5.50;;;3.13;;
16665;SDS011;8446;50.998;6.250;2023-07-28T07:38:46;4.43;;;2.73;;
16665;SDS011;8446;50.998;6.250;2023-07-28T07:41:14;2.87;;;2.60;;
16665;SDS011;8446;50.998;6.250;2023-07-28T07:43:44;7.13;;;2.70;;
16665;SDS011;8446;50.998;6.250;2023-07-28T07:46:13;2.97;;;2.67;;
16665;SDS011;8446;50.998;6.250;2023-07-28T07:48:40;4.57;;;3.00;;
16665;SDS011;8446;50.998;6.250;2023-07-28T07:51:07;2.73;;;2.53;;
16665;SDS011;8446;50.998;6.250;2023-07-28T07:53:34;3.03;;;2.73;;
16665;SDS011;8446;50.998;6.250;2023-07-28T07:56:01;8.83;;;2.60;;
16665;SDS011;8446;50.998;6.250;2023-07-28T07:58:29;3.37;;;3.07;;
16665;SDS011;8446;50.998;6.250;2023-07-28T08:00:56;6.00;;;3.10;;
16665;SDS011;8446;50.998;6.250;2023-07-28T08:03:26;3.60;;;2.60;;
16665;SDS011;8446;50.998;6.250;2023-07-28T08:05:53;5.00;;;3.67;;
16665;SDS011;8446;50.998;6.250;2023-07-28T08:08:20;7.87;;;3.50;;
16665;SDS011;8446;50.998;6.250;2023-07-28T08:10:47;12.73;;;3.30;;
16665;SDS011;8446;50.998;6.250;2023-07-28T08:13:14;3.50;;;3.20;;
16665;SDS011;8446;50.998;6.250;2023-07-28T08:15:42;4.57;;;3.03;;
16665;SDS011;8446;50.998;6.250;2023-07-28T08:18:10;5.23;;;4.13;;
16665;SDS011;8446;50.998;6.250;2023-07-28T08:20:40;4.30;;;3.73;;
16665;SDS011;8446;50.998;6.250;2023-07-28T08:23:07;3.07;;;2.77;;
16665;SDS011;8446;50.998;6.250;2023-07-28T08:25:33;5.83;;;3.07;;
16665;SDS011;8446;50.998;6.250;2023-07-28T08:28:00;7.30;;;3.37;;
16665;SDS011;8446;50.998;6.250;2023-07-28T08:30:27;4.50;;;2.90;;
16665;SDS011;8446;50.998;6.250;2023-07-28T08:32:54;5.33;;;3.03;;
16665;SDS011;8446;50.998;6.250;2023-07-28T08:35:21;2.77;;;2.57;;
16665;SDS011;8446;50.998;6.250;2023-07-28T08:37:50;7.13;;;2.87;;
16665;SDS011;8446;50.998;6.250;2023-07-28T08:40:17;3.13;;;2.63;;
16665;SDS011;8446;50.998;6.250;2023-07-28T08:42:44;2.30;;;2.10;;
16665;SDS011;8446;50.998;6.250;2023-07-28T08:45:11;4.70;;;2.47;;
16665;SDS011;8446;50.998;6.250;2023-07-28T08:47:39;11.73;;;2.40;;
16665;SDS011;8446;50.998;6.250;2023-07-28T08:50:06;1.80;;;1.70;;
16665;SDS011;8446;50.998;6.250;2023-07-28T08:52:33;4.90;;;2.27;;
16665;SDS011;8446;50.998;6.250;2023-07-28T08:55:01;1.70;;;1.60;;
16665;SDS011;8446;50.998;6.250;2023-07-28T08:57:28;2.37;;;2.17;;
16665;SDS011;8446;50.998;6.250;2023-07-28T08:59:54;3.03;;;2.10;;
16665;SDS011;8446;50.998;6.250;2023-07-28T09:02:21;3.40;;;1.90;;
16665;SDS011;8446;50.998;6.250;2023-07-28T09:04:49;2.13;;;1.60;;
16665;SDS011;8446;50.998;6.250;2023-07-28T09:07:15;2.50;;;1.50;;
16665;SDS011;8446;50.998;6.250;2023-07-28T09:09:42;1.50;;;1.40;;
16665;SDS011;8446;50.998;6.250;2023-07-28T09:12:10;2.90;;;1.30;;
16665;SDS011;8446;50.998;6.250;2023-07-28T09:14:37;1.50;;;1.40;;
16665;SDS011;8446;50.998;6.250;2023-07-28T09:17:05;4.27;;;1.50;;
16665;SDS011;8446;50.998;6.250;2023-07-28T09:19:34;1.87;;;1.77;;
16665;SDS011;8446;50.998;6.250;2023-07-28T09:22:01;2.10;;;1.33;;
16665;SDS011;8446;50.998;6.250;2023-07-28T09:24:30;1.63;;;1.53;;
16665;SDS011;8446;50.998;6.250;2023-07-28T09:26:58;2.40;;;1.80;;
16665;SDS011;8446;50.998;6.250;2023-07-28T09:29:27;4.23;;;2.53;;
16665;SDS011;8446;50.998;6.250;2023-07-28T09:31:54;1.90;;;1.70;;
16665;SDS011;8446;50.998;6.250;2023-07-28T09:34:29;2.23;;;2.13;;
16665;SDS011;8446;50.998;6.250;2023-07-28T09:36:57;3.60;;;1.77;;
16665;SDS011;8446;50.998;6.250;2023-07-28T09:39:26;1.50;;;1.40;;
16665;SDS011;8446;50.998;6.250;2023-07-28T09:41:53;3.90;;;1.80;;
16665;SDS011;8446;50.998;6.250;2023-07-28T09:44:23;1.83;;;1.53;;
16665;SDS011;8446;50.998;6.250;2023-07-28T09:46:52;1.50;;;1.40;;
16665;SDS011;8446;50.998;6.250;2023-07-28T09:49:20;1.30;;;1.20;;
16665;SDS011;8446;50.998;6.250;2023-07-28T09:51:50;1.50;;;1.20;;
16665;SDS011;8446;50.998;6.250;2023-07-28T09:54:20;1.27;;;1.17;;
16665;SDS011;8446;50.998;6.250;2023-07-28T09:56:52;1.20;;;1.10;;
16665;SDS011;8446;50.998;6.250;2023-07-28T09:59:22;7.23;;;1.67;;
16665;SDS011;8446;50.998;6.250;2023-07-28T10:01:55;1.97;;;1.50;;
16665;SDS011;8446;50.998;6.250;2023-07-28T10:04:23;2.00;;;1.90;;
16665;SDS011;8446;50.998;6.250;2023-07-28T10:06:50;4.70;;;2.00;;
16665;SDS011;8446;50.998;6.250;2023-07-28T10:09:21;2.07;;;1.97;;
16665;SDS011;8446;50.998;6.250;2023-07-28T10:11:49;2.03;;;1.90;;
16665;SDS011;8446;50.998;6.250;2023-07-28T10:14:25;1.60;;;1.50;;
16665;SDS011;8446;50.998;6.250;2023-07-28T10:16:53;1.40;;;1.30;;
16665;SDS011;8446;50.998;6.250;2023-07-28T10:19:21;1.50;;;1.40;;
16665;SDS011;8446;50.998;6.250;2023-07-28T10:21:50;1.60;;;1.50;;
16665;SDS011;8446;50.998;6.250;2023-07-28T10:27:31;1.53;;;1.43;;
16665;SDS011;8446;50.998;6.250;2023-07-28T10:30:01;1.30;;;1.17;;
16665;SDS011;8446;50.998;6.250;2023-07-28T10:32:34;1.30;;;1.20;;
16665;SDS011;8446;50.998;6.250;2023-07-28T10:35:07;1.60;;;1.50;;
16665;SDS011;8446;50.998;6.250;2023-07-28T10:37:35;2.43;;;1.40;;
16665;SDS011;8446;50.998;6.250;2023-07-28T10:42:53;1.47;;;1.37;;
16665;SDS011;8446;50.998;6.250;2023-07-28T10:45:21;1.63;;;1.53;;
16665;SDS011;8446;50.998;6.250;2023-07-28T10:47:49;1.60;;;1.50;;
16665;SDS011;8446;50.998;6.250;2023-07-28T10:50:19;1.40;;;1.30;;
16665;SDS011;8446;50.998;6.250;2023-07-28T10:52:45;1.60;;;1.50;;
16665;SDS011;8446;50.998;6.250;2023-07-28T10:55:13;1.50;;;1.40;;
16665;SDS011;8446;50.998;6.250;2023-07-28T10:57:40;1.53;;;1.43;;
16665;SDS011;8446;50.998;6.250;2023-07-28T11:00:08;2.20;;;1.40;;
16665;SDS011;8446;50.998;6.250;2023-07-28T11:02:37;1.33;;;1.23;;
16665;SDS011;8446;50.998;6.250;2023-07-28T11:05:07;1.63;;;1.53;;
16665;SDS011;8446;50.998;6.250;2023-07-28T11:07:37;1.30;;;1.20;;
16665;SDS011;8446;50.998;6.250;2023-07-28T11:10:06;9.93;;;1.40;;
16665;SDS011;8446;50.998;6.250;2023-07-28T11:12:33;1.60;;;1.50;;
16665;SDS011;8446;50.998;6.250;2023-07-28T11:15:00;1.50;;;1.40;;
16665;SDS011;8446;50.998;6.250;2023-07-28T11:17:27;2.07;;;1.87;;
16665;SDS011;8446;50.998;6.250;2023-07-28T11:19:55;2.00;;;1.63;;
16665;SDS011;8446;50.998;6.250;2023-07-28T11:22:21;1.53;;;1.30;;
16665;SDS011;8446;50.998;6.250;2023-07-28T11:24:51;1.40;;;1.30;;
16665;SDS011;8446;50.998;6.250;2023-07-28T11:27:18;1.40;;;1.30;;
16665;SDS011;8446;50.998;6.250;2023-07-28T11:29:45;1.70;;;1.60;;
16665;SDS011;8446;50.998;6.250;2023-07-28T11:32:14;1.40;;;1.30;;
16665;SDS011;8446;50.998;6.250;2023-07-28T11:34:42;3.83;;;1.50;;
16665;SDS011;8446;50.998;6.250;2023-07-28T11:37:10;1.30;;;1.20;;
16665;SDS011;8446;50.998;6.250;2023-07-28T11:39:38;1.53;;;1.20;;
16665;SDS011;8446;50.998;6.250;2023-07-28T11:42:07;2.13;;;1.70;;
16665;SDS011;8446;50.998;6.250;2023-07-28T11:44:35;1.30;;;1.20;;
16665;SDS011;8446;50.998;6.250;2023-07-28T11:47:04;1.40;;;1.30;;
16665;SDS011;8446;50.998;6.250;2023-07-28T11:49:31;1.77;;;1.20;;
16665;SDS011;8446;50.998;6.250;2023-07-28T11:51:58;1.40;;;1.30;;
16665;SDS011;8446;50.998;6.250;2023-07-28T11:54:25;1.50;;;1.40;;
16665;SDS011;8446;50.998;6.250;2023-07-28T11:56:54;1.53;;;1.43;;
16665;SDS011;8446;50.998;6.250;2023-07-28T11:59:23;1.47;;;1.37;;
16665;SDS011;8446;50.998;6.250;2023-07-28T12:01:51;1.43;;;1.30;;
16665;SDS011;8446;50.998;6.250;2023-07-28T12:04:24;1.03;;;0.93;;
16665;SDS011;8446;50.998;6.250;2023-07-28T12:07:06;1.60;;;1.43;;
16665;SDS011;8446;50.998;6.250;2023-07-28T12:09:46;1.33;;;1.23;;
16665;SDS011;8446;50.998;6.250;2023-07-28T12:12:17;1.30;;;1.20;;
16665;SDS011;8446;50.998;6.250;2023-07-28T12:14:47;0.97;;;0.97;;
16665;SDS011;8446;50.998;6.250;2023-07-28T12:17:16;1.63;;;1.20;;
16665;SDS011;8446;50.998;6.250;2023-07-28T12:19:54;1.00;;;1.00;;
16665;SDS011;8446;50.998;6.250;2023-07-28T12:22:22;1.27;;;1.17;;
16665;SDS011;8446;50.998;6.250;2023-07-28T12:24:49;1.10;;;1.00;;
16665;SDS011;8446;50.998;6.250;2023-07-28T12:27:15;1.43;;;1.00;;
16665;SDS011;8446;50.998;6.250;2023-07-28T12:29:42;1.10;;;1.03;;
16665;SDS011;8446;50.998;6.250;2023-07-28T12:32:11;1.13;;;1.00;;
16665;SDS011;8446;50.998;6.250;2023-07-28T12:34:37;2.00;;;1.33;;
16665;SDS011;8446;50.998;6.250;2023-07-28T12:37:05;0.93;;;0.93;;
16665;SDS011;8446;50.998;6.250;2023-07-28T12:39:32;2.70;;;1.33;;
16665;SDS011;8446;50.998;6.250;2023-07-28T12:42:02;1.33;;;1.23;;
16665;SDS011;8446;50.998;6.250;2023-07-28T12:44:29;2.23;;;1.33;;
16665;SDS011;8446;50.998;6.250;2023-07-28T12:46:56;5.37;;;2.80;;
16665;SDS011;8446;50.998;6.250;2023-07-28T12:49:24;1.00;;;0.97;;
16665;SDS011;8446;50.998;6.250;2023-07-28T12:51:51;2.33;;;1.20;;
16665;SDS011;8446;50.998;6.250;2023-07-28T12:54:18;1.20;;;1.10;;
16665;SDS011;8446;50.998;6.250;2023-07-28T12:56:44;1.97;;;1.00;;
16665;SDS011;8446;50.998;6.250;2023-07-28T12:59:11;1.00;;;1.00;;
16665;SDS011;8446;50.998;6.250;2023-07-28T13:01:38;1.20;;;1.10;;
16665;SDS011;8446;50.998;6.250;2023-07-28T13:04:05;1.20;;;1.10;;
16665;SDS011;8446;50.998;6.250;2023-07-28T13:06:33;19.17;;;1.73;;
16665;SDS011;8446;50.998;6.250;2023-07-28T13:09:01;1.27;;;1.10;;
16665;SDS011;8446;50.998;6.250;2023-07-28T13:11:28;1.10;;;1.00;;
16665;SDS011;8446;50.998;6.250;2023-07-28T13:13:55;3.70;;;1.40;;
16665;SDS011;8446;50.998;6.250;2023-07-28T13:16:22;4.63;;;1.53;;
16665;SDS011;8446;50.998;6.250;2023-07-28T13:18:48;1.00;;;1.00;;
16665;SDS011;8446;50.998;6.250;2023-07-28T13:21:16;1.80;;;1.23;;
16665;SDS011;8446;50.998;6.250;2023-07-28T13:23:44;1.20;;;1.10;;
16665;SDS011;8446;50.998;6.250;2023-07-28T13:26:10;1.97;;;1.50;;
16665;SDS011;8446;50.998;6.250;2023-07-28T13:28:37;3.20;;;1.70;;
16665;SDS011;8446;50.998;6.250;2023-07-28T13:31:08;1.40;;;1.30;;
16665;SDS011;8446;50.998;6.250;2023-07-28T13:33:34;1.70;;;1.60;;
16665;SDS011;8446;50.998;6.250;2023-07-28T13:36:01;2.27;;;2.07;;
16665;SDS011;8446;50.998;6.250;2023-07-28T13:38:32;2.63;;;1.50;;
16665;SDS011;8446;50.998;6.250;2023-07-28T13:41:00;2.23;;;1.53;;
16665;SDS011;8446;50.998;6.250;2023-07-28T13:43:27;1.57;;;1.47;;
16665;SDS011;8446;50.998;6.250;2023-07-28T13:45:54;1.33;;;1.23;;
16665;SDS011;8446;50.998;6.250;2023-07-28T13:48:21;1.47;;;1.37;;
16665;SDS011;8446;50.998;6.250;2023-07-28T13:50:48;1.60;;;1.50;;
16665;SDS011;8446;50.998;6.250;2023-07-28T13:53:14;1.37;;;1.27;;
16665;SDS011;8446;50.998;6.250;2023-07-28T13:55:41;1.30;;;1.20;;
16665;SDS011;8446;50.998;6.250;2023-07-28T13:58:09;1.73;;;1.37;;
16665;SDS011;8446;50.998;6.250;2023-07-28T14:00:36;2.90;;;1.60;;
16665;SDS011;8446;50.998;6.250;2023-07-28T14:03:03;1.53;;;1.27;;
16665;SDS011;8446;50.998;6.250;2023-07-28T14:05:29;1.40;;;1.30;;
16665;SDS011;8446;50.998;6.250;2023-07-28T14:07:56;2.20;;;1.30;;
16665;SDS011;8446;50.998;6.250;2023-07-28T14:10:23;1.70;;;1.43;;
16665;SDS011;8446;50.998;6.250;2023-07-28T14:12:50;2.07;;;1.50;;
16665;SDS011;8446;50.998;6.250;2023-07-28T14:15:18;1.63;;;1.53;;
16665;SDS011;8446;50.998;6.250;2023-07-28T14:17:45;3.20;;;1.90;;
16665;SDS011;8446;50.998;6.250;2023-07-28T14:20:12;2.00;;;1.90;;
16665;SDS011;8446;50.998;6.250;2023-07-28T14:22:38;2.00;;;1.70;;
16665;SDS011;8446;50.998;6.250;2023-07-28T14:25:05;3.53;;;1.63;;
16665;SDS011;8446;50.998;6.250;2023-07-28T14:27:33;2.37;;;1.90;;
16665;SDS011;8446;50.998;6.250;2023-07-28T14:29:59;2.93;;;1.90;;
16665;SDS011;8446;50.998;6.250;2023-07-28T14:32:27;7.73;;;2.23;;
16665;SDS011;8446;50.998;6.250;2023-07-28T14:34:54;1.70;;;1.60;;
16665;SDS011;8446;50.998;6.250;2023-07-28T14:37:21;6.80;;;1.80;;
16665;SDS011;8446;50.998;6.250;2023-07-28T14:39:48;2.40;;;1.60;;
16665;SDS011;8446;50.998;6.250;2023-07-28T14:42:14;1.80;;;1.70;;
16665;SDS011;8446;50.998;6.250;2023-07-28T14:44:41;2.30;;;2.10;;
16665;SDS011;8446;50.998;6.250;2023-07-28T14:47:08;1.60;;;1.50;;
16665;SDS011;8446;50.998;6.250;2023-07-28T14:49:36;3.00;;;1.40;;
16665;SDS011;8446;50.998;6.250;2023-07-28T14:52:03;1.40;;;1.30;;
16665;SDS011;8446;50.998;6.250;2023-07-28T14:54:30;1.50;;;1.40;;
16665;SDS011;8446;50.998;6.250;2023-07-28T14:56:57;18.00;;;1.50;;
16665;SDS011;8446;50.998;6.250;2023-07-28T14:59:24;1.70;;;1.40;;
16665;SDS011;8446;50.998;6.250;2023-07-28T15:01:50;1.70;;;1.20;;
16665;SDS011;8446;50.998;6.250;2023-07-28T15:04:17;1.70;;;1.60;;
16665;SDS011;8446;50.998;6.250;2023-07-28T15:06:45;1.73;;;1.60;;
16665;SDS011;8446;50.998;6.250;2023-07-28T15:09:12;1.60;;;1.50;;